Time;durP1;ratioP1;P1;durP2;ratioP2;P2;SDS_P1;SDS_P2;PMS_P1;PMS_P2;Temp;Humidity;BMP_temperature;BMP_pressure;BME280_temperature;BME280_humidity;BME280_pressure;Samples;Min_cycle;Max_cycle;Signal;HPM_P1;HPM_P2
2022/03/02 00:00:16;;;;;;;45.08;26.10;;;4.50;99.90;;;;;;5119051;27;20674;-81
2022/03/02 00:02:43;;;;;;;42.67;24.95;;;4.50;99.90;;;;;;5117541;27;20054;-81
2022/03/02 00:05:09;;;;;;;45.58;25.40;;;4.50;99.90;;;;;;5106461;27;20525;-82
2022/03/02 00:07:35;;;;;;;48.20;26.15;;;4.50;99.90;;;;;;5122324;27;20047;-81
2022/03/02 00:10:01;;;;;;;47.55;26.33;;;4.50;99.90;;;;;;5121837;27;20080;-81
2022/03/02 00:12:27;;;;;;;43.58;25.08;;;4.90;99.90;;;;;;5106218;27;20565;-82
2022/03/02 00:14:53;;;;;;;41.20;24.23;;;4.50;99.90;;;;;;5089244;27;20043;-81
2022/03/02 00:17:18;;;;;;;42.33;25.27;;;4.50;99.90;;;;;;5103016;27;20060;-81
2022/03/02 00:19:45;;;;;;;46.95;25.75;;;4.50;99.90;;;;;;5088020;27;20043;-81
2022/03/02 00:22:11;;;;;;;44.38;25.27;;;4.60;99.90;;;;;;5095671;27;20455;-82
2022/03/02 00:24:37;;;;;;;41.60;24.30;;;4.80;99.90;;;;;;5083045;27;20047;-81
2022/03/02 00:27:03;;;;;;;43.22;24.80;;;4.50;99.90;;;;;;5081659;27;20032;-82
2022/03/02 00:29:29;;;;;;;44.63;23.95;;;4.60;99.90;;;;;;5082514;27;20038;-82
2022/03/02 00:31:55;;;;;;;44.40;24.83;;;4.60;99.90;;;;;;5099407;27;20039;-82
2022/03/02 00:34:20;;;;;;;47.67;24.98;;;4.60;99.90;;;;;;5085327;27;20036;-82
2022/03/02 00:36:46;;;;;;;44.53;24.63;;;4.60;99.90;;;;;;5101644;27;20035;-82
2022/03/02 00:39:12;;;;;;;49.67;26.05;;;4.60;99.90;;;;;;5107007;27;20038;-82
2022/03/02 00:41:38;;;;;;;47.75;25.02;;;4.50;99.90;;;;;;5104228;27;20059;-82
2022/03/02 00:44:04;;;;;;;43.00;24.20;;;4.60;99.90;;;;;;5106163;27;20036;-82
2022/03/02 00:46:31;;;;;;;42.65;24.98;;;4.60;99.90;;;;;;5102330;27;20460;-82
2022/03/02 00:49:02;;;;;;;43.13;24.50;;;4.60;99.90;;;;;;5085085;27;20039;-82
2022/03/02 00:51:29;;;;;;;;;;;4.60;99.90;;;;;;5100552;27;20495;-81
2022/03/02 00:53:55;;;;;;;41.22;23.65;;;4.60;99.90;;;;;;5097961;27;19973;-83
2022/03/02 00:56:22;;;;;;;48.28;26.45;;;4.50;99.90;;;;;;5096748;27;20134;-82
2022/03/02 00:58:48;;;;;;;47.78;25.02;;;4.70;99.90;;;;;;5106401;27;20557;-82
2022/03/02 01:01:15;;;;;;;45.05;25.08;;;4.50;99.90;;;;;;5100987;27;20084;-82
2022/03/02 01:03:41;;;;;;;46.20;25.67;;;4.50;99.90;;;;;;5103675;27;20200;-82
2022/03/02 01:06:07;;;;;;;45.58;26.73;;;4.40;99.90;;;;;;5107918;27;20071;-82
2022/03/02 01:08:33;;;;;;;45.63;24.33;;;4.50;99.90;;;;;;5116525;27;20490;-82
2022/03/02 01:10:59;;;;;;;48.35;26.60;;;4.40;99.90;;;;;;5088149;27;20099;-82
2022/03/02 01:13:25;;;;;;;48.33;26.45;;;4.40;99.90;;;;;;5102209;27;20130;-81
2022/03/02 01:15:51;;;;;;;44.13;25.70;;;4.40;99.90;;;;;;5090280;27;20661;-82
2022/03/02 01:18:17;;;;;;;52.72;27.65;;;4.40;99.90;;;;;;5100143;27;20047;-82
2022/03/02 01:20:43;;;;;;;42.90;24.85;;;4.40;99.90;;;;;;5105689;27;20043;-82
2022/03/02 01:23:09;;;;;;;47.95;26.35;;;4.40;99.90;;;;;;5085321;27;20124;-82
2022/03/02 01:25:34;;;;;;;49.25;26.52;;;4.40;99.90;;;;;;5098887;27;20357;-83
2022/03/02 01:28:00;;;;;;;45.20;26.65;;;4.30;99.90;;;;;;5082249;27;20129;-81
2022/03/02 01:30:27;;;;;;;47.30;26.77;;;4.90;99.90;;;;;;5092717;27;20047;-82
2022/03/02 01:32:52;;;;;;;49.85;27.35;;;4.30;99.90;;;;;;5113020;27;20043;-82
2022/03/02 01:35:18;;;;;;;50.22;27.58;;;4.30;99.90;;;;;;5100632;27;20042;-82
2022/03/02 01:37:47;;;;;;;49.03;26.92;;;4.30;99.90;;;;;;5115266;27;20042;-83
2022/03/02 01:40:13;;;;;;;48.90;26.98;;;4.30;99.90;;;;;;5098160;27;20113;-82
2022/03/02 01:42:41;;;;;;;50.78;27.52;;;4.30;99.90;;;;;;5095205;27;20093;-81
2022/03/02 01:45:07;;;;;;;48.72;27.92;;;4.30;99.90;;;;;;5095552;27;20040;-82
2022/03/02 01:47:35;;;;;;;51.55;26.85;;;4.30;99.90;;;;;;5103873;27;20039;-82
2022/03/02 01:50:02;;;;;;;49.83;27.30;;;4.20;99.90;;;;;;5096361;27;20047;-82
2022/03/02 01:52:28;;;;;;;54.35;28.77;;;4.70;99.90;;;;;;5079847;27;20039;-82
2022/03/02 01:54:54;;;;;;;50.45;28.52;;;4.20;99.90;;;;;;5115101;27;20549;-82
2022/03/02 01:57:19;;;;;;;52.67;28.13;;;4.20;99.90;;;;;;5121463;27;20034;-82
2022/03/02 01:59:45;;;;;;;52.15;27.92;;;4.20;99.90;;;;;;5112476;27;20077;-83
2022/03/02 02:02:11;;;;;;;47.25;26.95;;;4.20;99.90;;;;;;5116302;27;20035;-82
2022/03/02 02:04:37;;;;;;;51.75;27.73;;;4.20;99.90;;;;;;5121844;27;20055;-82
2022/03/02 02:07:03;;;;;;;46.22;25.48;;;4.20;99.90;;;;;;5114635;27;20026;-82
2022/03/02 02:09:29;;;;;;;50.95;27.42;;;4.20;99.90;;;;;;5099416;27;20122;-82
2022/03/02 02:11:54;;;;;;;51.28;27.67;;;4.10;99.90;;;;;;5122142;27;20685;-82
2022/03/02 02:14:20;;;;;;;51.42;27.85;;;4.10;99.90;;;;;;5137185;27;20077;-82
2022/03/02 02:16:46;;;;;;;53.25;28.50;;;4.20;99.90;;;;;;5122685;27;20042;-83
2022/03/02 02:19:12;;;;;;;49.45;26.40;;;4.10;99.90;;;;;;5138713;27;20086;-83
2022/03/02 02:21:37;;;;;;;52.03;27.95;;;4.10;99.90;;;;;;5116443;27;20038;-82
2022/03/02 02:24:03;;;;;;;47.58;26.80;;;4.00;99.90;;;;;;5139259;27;20137;-83
2022/03/02 02:26:29;;;;;;;49.40;27.85;;;4.00;99.90;;;;;;5113604;27;20061;-82
2022/03/02 02:28:55;;;;;;;46.88;27.27;;;4.00;99.90;;;;;;5113520;27;20061;-83
2022/03/02 02:31:21;;;;;;;52.85;28.65;;;3.90;99.90;;;;;;5131287;27;20031;-82
2022/03/02 02:33:47;;;;;;;51.03;28.10;;;3.90;99.90;;;;;;5113359;27;20049;-82
2022/03/02 02:36:16;;;;;;;53.67;28.92;;;3.80;99.90;;;;;;5132006;27;20099;-83
2022/03/02 02:38:42;;;;;;;52.55;28.17;;;3.80;99.90;;;;;;5130541;27;20045;-82
2022/03/02 02:41:08;;;;;;;56.30;29.30;;;3.80;99.90;;;;;;5110444;27;20535;-82
2022/03/02 02:43:33;;;;;;;60.47;29.30;;;4.70;99.90;;;;;;5101629;27;20515;-82
2022/03/02 02:45:59;;;;;;;53.70;28.15;;;3.60;99.90;;;;;;5103076;27;20089;-82
2022/03/02 02:48:25;;;;;;;55.03;29.50;;;3.60;99.90;;;;;;5127415;27;20038;-82
2022/03/02 02:50:51;;;;;;;53.60;30.65;;;3.60;99.90;;;;;;5114631;27;20042;-82
2022/03/02 02:53:17;;;;;;;52.20;29.30;;;3.60;99.90;;;;;;5113987;27;20042;-82
2022/03/02 02:55:47;;;;;;;53.95;30.45;;;3.50;99.90;;;;;;5131882;27;20505;-82
2022/03/02 02:58:13;;;;;;;63.93;31.90;;;3.50;99.90;;;;;;5131858;27;20050;-81
2022/03/02 03:00:43;;;;;;;53.80;28.80;;;3.40;99.90;;;;;;5114760;27;20038;-82
2022/03/02 03:03:08;;;;;;;60.17;30.65;;;3.40;99.90;;;;;;5115161;27;20039;-82
2022/03/02 03:05:34;;;;;;;54.95;30.42;;;3.30;99.90;;;;;;5104908;27;20099;-82
2022/03/02 03:08:09;;;;;;;54.47;28.95;;;3.30;99.90;;;;;;5131953;27;20483;-82
2022/03/02 03:10:35;;;;;;;58.40;31.48;;;3.20;99.90;;;;;;5114518;27;20306;-81
2022/03/02 03:13:01;;;;;;;58.63;29.73;;;3.10;99.90;;;;;;5098799;27;20130;-82
2022/03/02 03:15:28;;;;;;;57.90;29.58;;;3.10;99.90;;;;;;5093992;28;20129;-82
2022/03/02 03:17:54;;;;;;;57.00;31.15;;;3.00;99.90;;;;;;5092137;28;20549;-81
2022/03/02 03:20:23;;;;;;;56.22;31.23;;;3.00;99.90;;;;;;5094123;28;20130;-82
2022/03/02 03:22:49;;;;;;;61.17;30.25;;;3.00;99.90;;;;;;5080718;28;20035;-82
2022/03/02 03:25:15;;;;;;;57.90;29.00;;;2.90;99.90;;;;;;5078663;28;20423;-82
2022/03/02 03:27:42;;;;;;;57.10;30.35;;;2.90;99.90;;;;;;5104128;28;20039;-82
2022/03/02 03:30:09;;;;;;;56.78;28.83;;;2.90;99.90;;;;;;5102386;28;20147;-82
2022/03/02 03:32:35;;;;;;;54.67;29.35;;;2.80;99.90;;;;;;5085077;28;20039;-82
2022/03/02 03:35:02;;;;;;;57.10;29.77;;;2.80;99.90;;;;;;5085709;28;20034;-82
2022/03/02 03:37:27;;;;;;;59.70;30.02;;;2.70;99.90;;;;;;5113215;28;20039;-82
2022/03/02 03:39:54;;;;;;;60.17;30.35;;;2.70;99.90;;;;;;5114345;28;20031;-82
2022/03/02 03:42:19;;;;;;;60.30;31.58;;;2.70;99.90;;;;;;5097698;28;20043;-82
2022/03/02 03:44:46;;;;;;;59.08;30.58;;;2.60;99.90;;;;;;5097659;28;20039;-82
2022/03/02 03:47:14;;;;;;;58.88;30.98;;;2.60;99.90;;;;;;5109279;28;20038;-81
2022/03/02 03:49:40;;;;;;;57.42;29.55;;;2.60;99.90;;;;;;5095586;28;20081;-82
2022/03/02 03:52:06;;;;;;;59.85;29.85;;;2.60;99.90;;;;;;5109709;28;20059;-82
2022/03/02 03:54:31;;;;;;;60.20;31.05;;;2.50;99.90;;;;;;5078346;28;20554;-82
2022/03/02 03:56:57;;;;;;;62.35;31.40;;;2.50;99.90;;;;;;5112597;28;20082;-82
2022/03/02 03:59:25;;;;;;;61.38;31.65;;;2.50;99.90;;;;;;5095595;28;20047;-82
2022/03/02 04:01:51;;;;;;;61.78;30.83;;;2.40;99.90;;;;;;5104949;28;20040;-82
2022/03/02 04:04:17;;;;;;;62.13;29.95;;;2.40;99.90;;;;;;5095502;28;20050;-81
2022/03/02 04:06:46;;;;;;;60.35;30.50;;;3.40;99.90;;;;;;5090640;28;20043;-83
2022/03/02 04:09:12;;;;;;;61.38;31.73;;;2.30;99.90;;;;;;5111371;28;20043;-82
2022/03/02 04:11:38;;;;;;;63.67;32.28;;;2.30;99.90;;;;;;5088094;28;20046;-82
2022/03/02 04:14:04;;;;;;;58.55;30.73;;;2.30;99.90;;;;;;5101633;28;20035;-82
2022/03/02 04:16:30;;;;;;;61.78;30.92;;;1.60;99.90;;;;;;5112696;28;20039;-82
2022/03/02 04:18:56;;;;;;;59.90;31.42;;;2.60;99.90;;;;;;5104957;27;20078;-82
2022/03/02 04:21:21;;;;;;;62.90;30.45;;;2.20;99.90;;;;;;5113912;27;20115;-82
2022/03/02 04:23:47;;;;;;;64.60;31.48;;;2.10;99.90;;;;;;5112659;27;20114;-82
2022/03/02 04:26:13;;;;;;;63.25;31.52;;;2.20;99.90;;;;;;5113776;27;20042;-81
2022/03/02 04:28:39;;;;;;;61.72;31.15;;;2.10;99.90;;;;;;5130867;27;20035;-82
2022/03/02 04:31:05;;;;;;;60.05;30.33;;;2.10;99.90;;;;;;5131772;27;20039;-82
2022/03/02 04:33:32;;;;;;;61.40;30.42;;;2.10;99.90;;;;;;5124660;27;20039;-82
2022/03/02 04:35:57;;;;;;;60.60;31.63;;;2.10;99.90;;;;;;5107391;27;20138;-82
2022/03/02 04:38:23;;;;;;;60.92;31.25;;;2.10;99.90;;;;;;5097623;27;20130;-82
2022/03/02 04:40:49;;;;;;;58.83;30.20;;;2.00;99.90;;;;;;5099425;27;20038;-82
2022/03/02 04:43:14;;;;;;;56.95;28.73;;;2.00;99.90;;;;;;5117132;27;20084;-82
2022/03/02 04:45:40;;;;;;;59.03;30.60;;;2.00;99.90;;;;;;5115372;27;20054;-82
2022/03/02 04:48:08;;;;;;;58.22;29.98;;;2.00;99.90;;;;;;5127363;27;20039;-82
2022/03/02 04:50:34;;;;;;;62.63;31.40;;;1.90;99.90;;;;;;5096206;27;20399;-82
2022/03/02 04:53:01;;;;;;;64.85;31.67;;;2.00;99.90;;;;;;5102807;27;20402;-82
2022/03/02 04:55:27;;;;;;;57.05;30.25;;;1.90;99.90;;;;;;5119819;27;20100;-82
2022/03/02 04:57:54;;;;;;;58.60;30.38;;;1.90;99.90;;;;;;5110269;27;20035;-82
2022/03/02 05:00:23;;;;;;;61.95;30.27;;;1.90;99.90;;;;;;5109195;27;20698;-82
2022/03/02 05:02:50;;;;;;;58.08;28.15;;;1.90;99.90;;;;;;5097452;27;20088;-82
2022/03/02 05:05:17;;;;;;;59.38;30.00;;;1.80;99.90;;;;;;5104359;27;20737;-82
2022/03/02 05:07:44;;;;;;;61.78;29.90;;;1.80;99.90;;;;;;5099177;27;20043;-82
2022/03/02 05:10:11;;;;;;;60.63;29.63;;;1.70;99.90;;;;;;5105136;27;20035;-82
2022/03/02 05:12:37;;;;;;;57.67;31.05;;;1.90;99.90;;;;;;5116608;27;20097;-82
2022/03/02 05:15:04;;;;;;;61.42;30.13;;;1.70;99.90;;;;;;5101957;27;20058;-82
2022/03/02 05:17:30;;;;;;;65.75;32.65;;;1.70;99.90;;;;;;5130199;27;20122;-82
2022/03/02 05:19:56;;;;;;;65.68;33.95;;;1.60;99.90;;;;;;5121772;27;20054;-83
2022/03/02 05:22:22;;;;;;;57.85;30.83;;;1.60;99.90;;;;;;5119367;27;20406;-82
2022/03/02 05:24:48;;;;;;;62.17;32.42;;;1.60;99.90;;;;;;5124848;27;20130;-82
2022/03/02 05:27:14;;;;;;;59.55;29.55;;;1.60;99.90;;;;;;5124815;27;20095;-82
2022/03/02 05:29:39;;;;;;;59.13;31.70;;;1.60;99.90;;;;;;5114064;27;20059;-82
2022/03/02 05:32:06;;;;;;;67.22;31.10;;;2.20;99.90;;;;;;5110000;27;20049;-82
2022/03/02 05:34:32;;;;;;;59.72;30.77;;;1.50;99.90;;;;;;5116677;27;20635;-81
2022/03/02 05:36:57;;;;;;;58.33;29.90;;;1.60;99.90;;;;;;5124100;27;20042;-81
2022/03/02 05:39:23;;;;;;;59.38;30.65;;;1.50;99.90;;;;;;5111559;27;20155;-82
2022/03/02 05:41:50;;;;;;;59.55;30.17;;;1.50;99.90;;;;;;5119690;27;20067;-82
2022/03/02 05:44:16;;;;;;;54.88;28.13;;;1.50;99.90;;;;;;5120254;27;20046;-82
2022/03/02 05:46:43;;;;;;;53.78;27.90;;;1.40;99.90;;;;;;5100690;27;20071;-81
2022/03/02 05:49:08;;;;;;;65.03;31.60;;;2.60;99.90;;;;;;5101669;27;20054;-82
2022/03/02 05:51:35;;;;;;;58.67;29.27;;;1.40;99.90;;;;;;5114409;27;20043;-82
2022/03/02 05:54:05;;;;;;;59.45;29.95;;;1.80;99.90;;;;;;5107884;27;20099;-82
2022/03/02 05:56:32;;;;;;;52.75;29.13;;;1.70;99.90;;;;;;5145760;27;20041;-82
2022/03/02 05:58:58;;;;;;;54.97;28.27;;;1.30;99.90;;;;;;5120699;27;20096;-82
2022/03/02 06:01:24;;;;;;;55.88;27.75;;;1.30;99.90;;;;;;5104676;27;20038;-81
2022/03/02 06:03:50;;;;;;;52.25;26.90;;;1.20;99.90;;;;;;5119624;27;20053;-81
2022/03/02 06:06:18;;;;;;;55.08;27.95;;;1.20;99.90;;;;;;5107644;27;20437;-82
2022/03/02 06:08:45;;;;;;;53.55;27.48;;;1.20;99.90;;;;;;5099769;27;20042;-82
2022/03/02 06:11:11;;;;;;;54.55;28.90;;;1.10;99.90;;;;;;5093452;27;20047;-82
2022/03/02 06:13:37;;;;;;;57.60;29.33;;;1.80;99.90;;;;;;5100101;27;20053;-81
2022/03/02 06:16:03;;;;;;;56.50;28.05;;;1.10;99.90;;;;;;5087251;27;20043;-83
2022/03/02 06:18:29;;;;;;;57.42;27.88;;;1.00;99.90;;;;;;5080270;27;20159;-81
2022/03/02 06:21:02;;;;;;;57.60;28.50;;;1.00;99.90;;;;;;5100384;27;20106;-80
2022/03/02 06:23:32;;;;;;;57.00;27.27;;;1.00;99.90;;;;;;5082568;27;20129;-81
2022/03/02 06:25:57;;;;;;;57.97;27.70;;;0.90;99.90;;;;;;5098018;27;20135;-82
2022/03/02 06:28:24;;;;;;;51.78;27.10;;;0.90;99.90;;;;;;5089618;27;20036;-81
2022/03/02 06:30:50;;;;;;;49.90;26.70;;;0.90;99.90;;;;;;5090377;27;20097;-82
2022/03/02 06:33:19;;;;;;;54.70;26.50;;;1.90;99.90;;;;;;5095571;27;20050;-82
2022/03/02 06:35:45;;;;;;;54.95;28.05;;;0.90;99.90;;;;;;5102335;27;20491;-82
2022/03/02 06:38:11;;;;;;;54.25;27.75;;;0.80;99.90;;;;;;5099438;27;20062;-82
2022/03/02 06:40:37;;;;;;;59.70;30.00;;;0.80;99.90;;;;;;5090956;27;20051;-82
2022/03/02 06:43:07;;;;;;;61.20;29.05;;;0.80;99.90;;;;;;5097004;27;20043;-82
2022/03/02 06:45:57;;;;;;;55.08;28.05;;;0.80;99.90;;;;;;5104256;27;20035;-81
2022/03/02 06:48:32;;;;;;;54.30;27.77;;;0.80;99.90;;;;;;5087235;27;20053;-82
2022/03/02 06:51:00;;;;;;;57.67;28.30;;;0.90;99.90;;;;;;5087051;27;20043;-82
2022/03/02 06:53:30;;;;;;;49.85;25.85;;;0.90;99.90;;;;;;5081528;27;20035;-81
2022/03/02 06:55:59;;;;;;;50.45;27.25;;;0.90;99.90;;;;;;5085819;27;20044;-82
2022/03/02 06:58:27;;;;;;;56.58;28.98;;;0.90;99.90;;;;;;5084379;27;20078;-82
2022/03/02 07:00:53;;;;;;;55.30;28.85;;;0.90;99.90;;;;;;5084344;27;21124;-82
2022/03/02 07:03:25;;;;;;;58.30;28.92;;;0.90;99.90;;;;;;5098349;27;20429;-82
2022/03/02 07:05:53;;;;;;;54.83;28.05;;;0.90;99.90;;;;;;5078708;27;20047;-82
2022/03/02 07:08:21;;;;;;;55.92;29.23;;;1.00;99.90;;;;;;5084118;27;20122;-83
2022/03/02 07:10:50;;;;;;;62.33;29.88;;;1.60;99.90;;;;;;5079245;28;20057;-82
2022/03/02 07:13:16;;;;;;;61.33;29.77;;;1.30;99.90;;;;;;5114370;27;20066;-82
2022/03/02 07:15:42;;;;;;;66.30;31.40;;;1.60;99.90;;;;;;5086252;27;20050;-82
2022/03/02 07:18:08;;;;;;;60.92;29.92;;;1.80;99.90;;;;;;5106762;27;20683;-81
2022/03/02 07:20:39;;;;;;;54.28;28.02;;;2.00;99.90;;;;;;5121608;27;20074;-81
2022/03/02 07:23:09;;;;;;;56.47;29.95;;;2.10;99.90;;;;;;5099441;27;20062;-82
2022/03/02 07:25:38;;;;;;;55.83;29.08;;;2.30;99.90;;;;;;5107072;27;20074;-82
2022/03/02 07:28:04;;;;;;;53.17;28.13;;;2.70;99.90;;;;;;5103952;27;20087;-82
2022/03/02 07:30:30;;;;;;;53.40;27.58;;;3.30;99.90;;;;;;5105314;27;20442;-82
2022/03/02 07:33:00;;;;;;;49.35;26.23;;;4.10;99.90;;;;;;5094070;27;20066;-82
2022/03/02 07:35:36;;;;;;;49.83;26.43;;;6.00;99.90;;;;;;5103490;27;20173;-82
2022/03/02 07:38:06;;;;;;;49.42;25.80;;;5.60;99.90;;;;;;5120616;27;20119;-82
2022/03/02 07:40:32;;;;;;;48.00;26.15;;;6.30;99.90;;;;;;5098927;27;20057;-81
2022/03/02 07:42:58;;;;;;;45.55;25.23;;;6.40;99.90;;;;;;5116089;27;20534;-82
2022/03/02 07:45:24;;;;;;;49.20;26.05;;;6.60;99.90;;;;;;5099057;27;20038;-81
2022/03/02 07:47:50;;;;;;;47.67;25.80;;;8.10;99.90;;;;;;5083907;28;20043;-82
2022/03/02 07:50:16;;;;;;;50.13;26.25;;;7.80;99.90;;;;;;5122724;27;20054;-81
2022/03/02 07:52:49;;;;;;;50.25;26.33;;;9.20;99.90;;;;;;5124340;27;20091;-82
2022/03/02 07:55:18;;;;;;;47.78;26.65;;;8.70;99.90;;;;;;5103890;27;20050;-82
2022/03/02 07:57:45;;;;;;;51.95;26.52;;;9.20;99.90;;;;;;5124615;27;20407;-80
2022/03/02 08:00:12;;;;;;;46.55;25.33;;;8.40;99.90;;;;;;5107668;27;20043;-81
2022/03/02 08:02:42;;;;;;;49.15;26.65;;;8.60;99.90;;;;;;5107184;27;20035;-83
2022/03/02 08:05:09;;;;;;;45.65;25.05;;;9.60;99.90;;;;;;5123360;27;20048;-81
2022/03/02 08:07:35;;;;;;;47.33;24.73;;;9.20;99.90;;;;;;5112167;27;20394;-82
2022/03/02 08:10:03;;;;;;;43.63;24.35;;;9.20;99.90;;;;;;5112781;27;20031;-81
2022/03/02 08:12:29;;;;;;;46.95;25.25;;;10.00;99.90;;;;;;5126980;27;20066;-81
2022/03/02 08:14:55;;;;;;;41.17;24.13;;;9.50;99.90;;;;;;5108126;27;20035;-82
2022/03/02 08:17:21;;;;;;;43.50;24.13;;;9.70;99.90;;;;;;5111272;27;20034;-81
2022/03/02 08:19:47;;;;;;;43.85;24.73;;;9.90;99.90;;;;;;5119109;27;20050;-81
2022/03/02 08:22:19;;;;;;;46.33;27.35;;;10.20;99.90;;;;;;5113361;27;20047;-81
2022/03/02 08:25:14;;;;;;;46.30;25.50;;;8.80;99.90;;;;;;5096382;27;20456;-80
2022/03/02 08:27:43;;;;;;;41.40;24.17;;;8.20;99.90;;;;;;5112818;27;20055;-80
2022/03/02 08:30:10;;;;;;;47.08;26.55;;;8.10;99.90;;;;;;5096100;27;20494;-82
2022/03/02 08:32:41;;;;;;;41.58;24.75;;;7.20;99.90;;;;;;5103179;27;20062;-81
2022/03/02 08:35:07;;;;;;;48.53;27.40;;;7.00;99.90;;;;;;5116256;27;20169;-81
2022/03/02 08:37:34;;;;;;;45.72;25.13;;;6.70;99.90;;;;;;5097821;27;20626;-81
2022/03/02 08:40:00;;;;;;;48.92;26.35;;;7.20;99.90;;;;;;5080345;27;20441;-82
2022/03/02 08:42:26;;;;;;;47.60;27.10;;;6.40;99.90;;;;;;5101888;27;20154;-81
2022/03/02 08:44:54;;;;;;;47.17;26.27;;;6.60;99.90;;;;;;5120621;27;20459;-82
2022/03/02 08:47:23;;;;;;;48.45;26.70;;;6.40;99.90;;;;;;5104835;27;20122;-81
2022/03/02 08:49:50;;;;;;;47.53;26.90;;;7.50;99.90;;;;;;5094363;27;20445;-80
2022/03/02 08:52:19;;;;;;;47.13;27.42;;;6.60;99.90;;;;;;5112602;27;20483;-82
2022/03/02 08:54:47;;;;;;;48.45;26.95;;;6.50;99.90;;;;;;5115712;27;20095;-82
2022/03/02 08:57:18;;;;;;;46.15;26.33;;;6.60;99.90;;;;;;5100645;27;20060;-82
2022/03/02 08:59:44;;;;;;;47.35;26.90;;;6.60;99.90;;;;;;5112469;27;20039;-83
2022/03/02 09:02:09;;;;;;;50.42;26.70;;;6.60;99.90;;;;;;5097238;27;20047;-81
2022/03/02 09:04:36;;;;;;;49.33;26.17;;;6.60;99.90;;;;;;5112138;27;20148;-82
2022/03/02 09:07:04;;;;;;;41.95;25.23;;;6.60;99.90;;;;;;5112283;27;20554;-82
2022/03/02 09:09:30;;;;;;;44.53;25.70;;;6.60;99.90;;;;;;5104583;27;20042;-82
2022/03/02 09:11:56;;;;;;;45.47;25.02;;;6.70;99.90;;;;;;5087948;27;20121;-81
2022/03/02 09:14:23;;;;;;;44.65;24.88;;;6.70;99.90;;;;;;5091951;27;20047;-82
2022/03/02 09:16:49;;;;;;;43.90;24.52;;;6.80;99.90;;;;;;5091082;27;20035;-82
2022/03/02 09:19:18;;;;;;;41.58;25.15;;;6.90;99.90;;;;;;5076900;27;20054;-82
2022/03/02 09:21:45;;;;;;;44.42;24.55;;;7.00;99.90;;;;;;5072193;28;20051;-82
2022/03/02 09:24:12;;;;;;;42.90;23.85;;;7.10;99.90;;;;;;5077666;27;20028;-82
2022/03/02 09:26:39;;;;;;;44.47;25.17;;;7.00;99.90;;;;;;5076799;27;20050;-80
2022/03/02 09:29:06;;;;;;;41.25;24.05;;;7.00;99.90;;;;;;5089817;27;20093;-82
2022/03/02 09:31:36;;;;;;;44.42;25.05;;;7.00;99.90;;;;;;5073263;27;20035;-80
2022/03/02 09:34:09;;;;;;;42.45;24.42;;;7.00;99.90;;;;;;5073867;27;20088;-80
2022/03/02 09:36:37;;;;;;;41.75;24.25;;;7.50;99.90;;;;;;5075080;27;20040;-84
2022/03/02 09:39:08;;;;;;;39.85;23.70;;;7.10;99.90;;;;;;5104241;27;20151;-81
2022/03/02 09:42:00;;;;;;;43.47;23.83;;;7.40;99.90;;;;;;5101584;27;20039;-83
2022/03/02 09:44:35;;;;;;;42.50;23.58;;;7.20;99.90;;;;;;5078534;27;20531;-82
2022/03/02 09:47:01;;;;;;;42.65;22.77;;;7.70;99.90;;;;;;5085830;27;20047;-83
2022/03/02 09:49:30;;;;;;;43.85;24.70;;;7.20;99.90;;;;;;5086710;27;20046;-82
2022/03/02 09:52:06;;;;;;;42.45;24.00;;;7.70;99.90;;;;;;5085848;28;20063;-82
2022/03/02 09:54:37;;;;;;;42.22;22.48;;;7.20;99.90;;;;;;5102774;27;20047;-83
2022/03/02 09:57:05;;;;;;;43.20;23.42;;;7.60;99.90;;;;;;5100450;28;20074;-83
2022/03/02 09:59:40;;;;;;;38.65;22.77;;;7.30;99.90;;;;;;5082125;27;20044;-82
2022/03/02 10:02:08;;;;;;;40.90;22.80;;;7.40;99.90;;;;;;5107305;27;20047;-81
2022/03/02 10:04:35;;;;;;;37.38;22.70;;;7.40;99.90;;;;;;5085284;28;20028;-82
2022/03/02 10:10:11;;;;;;;43.05;24.70;;;7.40;99.90;;;;;;5098184;27;21788;-82
2022/03/02 10:12:38;;;;;;;43.70;24.67;;;7.40;99.90;;;;;;5078568;27;20104;-82
2022/03/02 10:15:10;;;;;;;43.15;24.67;;;7.50;99.90;;;;;;5107962;27;20062;-82
2022/03/02 10:17:42;;;;;;;44.22;23.80;;;7.50;99.90;;;;;;5106204;27;20073;-81
2022/03/02 10:20:14;;;;;;;40.67;22.88;;;7.50;99.90;;;;;;5109106;27;20043;-81
2022/03/02 10:22:40;;;;;;;42.35;24.27;;;7.50;99.90;;;;;;5106387;27;20043;-82
2022/03/02 10:25:08;;;;;;;41.42;23.30;;;7.50;99.90;;;;;;5097159;27;20079;-82
2022/03/02 10:28:02;;;;;;;44.72;24.95;;;7.60;99.90;;;;;;5110139;27;20079;-80
2022/03/02 10:30:40;;;;;;;41.53;22.50;;;7.60;99.90;;;;;;5095842;27;20051;-82
2022/03/02 10:33:14;;;;;;;40.22;23.13;;;7.60;99.90;;;;;;5080605;27;20035;-81
2022/03/02 10:35:48;;;;;;;40.08;22.35;;;8.40;99.90;;;;;;5094830;27;20055;-80
2022/03/02 10:38:22;;;;;;;41.90;23.20;;;7.60;99.90;;;;;;5102108;27;20091;-82
2022/03/02 10:40:53;;;;;;;42.15;22.38;;;7.70;99.90;;;;;;5114097;27;20506;-82
2022/03/02 10:43:23;;;;;;;38.03;23.43;;;7.70;99.90;;;;;;5080397;27;20070;-81
2022/03/02 10:45:51;;;;;;;37.38;22.00;;;7.80;99.90;;;;;;5113464;27;20091;-79
2022/03/02 10:48:21;;;;;;;42.60;23.48;;;7.80;99.90;;;;;;5105398;27;20047;-82
2022/03/02 10:50:49;;;;;;;44.28;25.80;;;7.80;99.90;;;;;;5084387;27;20039;-82
2022/03/02 10:53:21;;;;;;;37.65;21.42;;;7.80;99.90;;;;;;5095446;27;20122;-82
2022/03/02 10:55:49;;;;;;;39.80;23.67;;;7.90;99.90;;;;;;5086161;27;20390;-83
2022/03/02 10:58:18;;;;;;;41.30;22.48;;;7.90;99.90;;;;;;5100010;27;20057;-83
2022/03/02 11:00:44;;;;;;;41.72;23.55;;;7.90;99.90;;;;;;5117331;27;20048;-80
2022/03/02 11:03:12;;;;;;;40.92;24.92;;;7.90;99.90;;;;;;5127654;27;20035;-82
2022/03/02 11:05:43;;;;;;;40.08;23.42;;;7.90;99.90;;;;;;5104289;27;20462;-80
2022/03/02 11:08:09;;;;;;;39.15;22.58;;;7.90;99.90;;;;;;5085519;28;20031;-80
2022/03/02 11:10:37;;;;;;;36.33;21.85;;;8.00;99.90;;;;;;5095193;27;20087;-82
2022/03/02 11:13:15;;;;;;;39.67;22.38;;;8.00;99.90;;;;;;5096001;27;20059;-82
2022/03/02 11:15:48;;;;;;;39.63;22.20;;;8.00;99.90;;;;;;5095705;28;20047;-83
2022/03/02 11:18:19;;;;;;;41.38;23.88;;;8.00;99.90;;;;;;5092273;27;20108;-82
2022/03/02 11:20:59;;;;;;;38.55;21.35;;;8.80;99.90;;;;;;5076771;28;20040;-82
2022/03/02 11:23:26;;;;;;;37.93;21.37;;;8.10;99.90;;;;;;5094846;28;20082;-81
2022/03/02 11:25:54;;;;;;;42.60;23.08;;;8.20;99.90;;;;;;5079723;27;20292;-81
2022/03/02 11:28:25;;;;;;;37.95;21.70;;;8.30;99.90;;;;;;5094245;27;20284;-83
2022/03/02 11:30:52;;;;;;;39.65;22.48;;;8.40;99.90;;;;;;5096532;28;20054;-83
2022/03/02 11:33:29;;;;;;;39.17;21.50;;;8.70;99.90;;;;;;5081741;28;20038;-81
2022/03/02 11:35:59;;;;;;;34.88;21.88;;;8.30;99.90;;;;;;5079061;28;20802;-81
2022/03/02 11:38:31;;;;;;;41.78;22.35;;;9.10;99.90;;;;;;5081247;28;20440;-82
2022/03/02 11:40:58;;;;;;;38.83;22.35;;;8.50;99.90;;;;;;5090982;27;20051;-83
2022/03/02 11:43:28;;;;;;;41.85;23.00;;;8.60;99.90;;;;;;5091439;27;20050;-83
2022/03/02 11:46:01;;;;;;;39.90;22.23;;;8.60;99.90;;;;;;5085205;27;20080;-83
2022/03/02 11:48:30;;;;;;;39.60;22.90;;;8.70;99.90;;;;;;5071616;27;20047;-81
2022/03/02 11:51:13;;;;;;;35.83;21.23;;;8.80;99.90;;;;;;5093256;27;20062;-81
2022/03/02 11:54:00;;;;;;;34.05;20.48;;;8.80;99.90;;;;;;5085183;27;20039;-84
2022/03/02 11:56:29;;;;;;;32.10;18.33;;;8.90;99.90;;;;;;5076694;27;20055;-82
2022/03/02 11:59:05;;;;;;;34.78;18.27;;;9.50;99.90;;;;;;5093387;27;20394;-80
2022/03/02 12:01:50;;;;;;;31.58;17.63;;;9.00;99.90;;;;;;5095235;27;20039;-82
2022/03/02 12:04:17;;;;;;;32.78;18.33;;;9.20;99.90;;;;;;5113069;27;20054;-82
2022/03/02 12:06:46;;;;;;;30.95;18.58;;;9.60;99.90;;;;;;5095174;27;20047;-81
2022/03/02 12:09:28;;;;;;;28.92;17.65;;;9.40;99.90;;;;;;5110802;27;20047;-81
2022/03/02 12:12:18;;;;;;;31.80;18.33;;;9.50;99.90;;;;;;5076575;27;20051;-82
2022/03/02 12:14:56;;;;;;;34.45;19.35;;;9.50;99.90;;;;;;5073233;27;20048;-83
2022/03/02 12:17:33;;;;;;;28.35;16.30;;;9.50;99.90;;;;;;5072396;27;20050;-81
2022/03/02 12:20:03;;;;;;;28.90;16.92;;;9.30;99.90;;;;;;5073899;27;20258;-81
2022/03/02 12:22:31;;;;;;;28.85;15.70;;;9.60;99.90;;;;;;5063431;27;20043;-81
2022/03/02 12:24:58;;;;;;;28.30;16.83;;;9.60;99.90;;;;;;5063108;27;20051;-81
2022/03/02 12:27:24;;;;;;;34.10;17.40;;;10.20;99.90;;;;;;5091441;27;20118;-83
2022/03/02 12:30:04;;;;;;;32.33;18.15;;;9.60;99.90;;;;;;5082867;27;20039;-81
2022/03/02 12:32:32;;;;;;;29.80;16.90;;;9.60;99.90;;;;;;5075941;27;20080;-81
2022/03/02 12:35:00;;;;;;;29.73;17.23;;;10.10;99.90;;;;;;5075216;27;20063;-81
2022/03/02 12:37:27;;;;;;;30.02;17.15;;;9.70;99.90;;;;;;5099559;27;20669;-81
2022/03/02 12:39:53;;;;;;;29.88;17.17;;;9.70;99.90;;;;;;5078358;27;20051;-82
2022/03/02 12:42:20;;;;;;;31.67;17.10;;;9.80;99.90;;;;;;5092818;27;20043;-81
2022/03/02 12:44:55;;;;;;;31.25;16.63;;;9.70;99.90;;;;;;5074967;27;20031;-83